Terminal Aerodrome Forecast
Issued by NWS

Home | Current Version | Previous Version | Text Only | Print | Product List | Glossary On
Versions: 1 2 3 4 5 6 7 8 9 10 11 12 13 14 15
000
FTUS46 KMTR 241700
TAFSTS
TAF
KSTS 241731Z 2418/2518 VRB04KT P6SM FEW025 SCT035 BKN200
     FM242300 24010KT P6SM SCT015 BKN025
     FM250400 19006KT P6SM VCSH BKN015 OVC020=

USA.gov is the U.S. government's official web portal to all federal, state and local government web resources and services.